Time,TemperatureF,DewpointF,PressureIn,WindDirection,WindDirectionDegrees,WindSpeedMPH,WindSpeedGustMPH,Humidity,HourlyPrecipIn,Conditions,Clouds,dailyrainin,SoftwareType,DateUTC
2013-04-03 00:00:00,29.7,13.3,30.18,WNW,292,2.0,2.0,50,0.00,,,0.00,Wunderground v.1.15,2013-04-03 04:00:00,
2013-04-03 00:02:00,29.7,13.8,30.18,WNW,292,1.0,2.0,51,0.00,,,0.00,Wunderground v.1.15,2013-04-03 04:02:00,
2013-04-03 00:08:00,29.6,12.8,30.18,WSW,250,2.0,7.0,49,0.00,,,0.00,Wunderground v.1.15,2013-04-03 04:08:00,
2013-04-03 00:10:00,29.7,13.3,30.18,WSW,250,3.0,3.0,50,0.00,,,0.00,Wunderground v.1.15,2013-04-03 04:10:00,
2013-04-03 00:16:00,29.4,13.0,30.18,WSW,250,2.0,3.0,50,0.00,,,0.00,Wunderground v.1.15,2013-04-03 04:16:00,
2013-04-03 00:50:00,27.8,14.5,30.18,SW,217,3.0,5.0,57,0.00,,,0.00,Wunderground v.1.15,2013-04-03 04:50:00,
2013-04-03 00:56:00,27.8,14.1,30.18,SW,228,4.0,4.0,56,0.00,,,0.00,Wunderground v.1.15,2013-04-03 04:56:00,
2013-04-03 01:02:00,27.7,14.8,30.18,SW,219,3.0,4.0,58,0.00,,,0.00,Wunderground v.1.15,2013-04-03 05:02:00,
2013-04-03 01:08:00,26.9,14.1,30.18,SW,219,2.0,6.0,58,0.00,,,0.00,Wunderground v.1.15,2013-04-03 05:08:00,
2013-04-03 01:14:00,27.0,14.2,30.18,SW,219,3.0,6.0,58,0.00,,,0.00,Wunderground v.1.15,2013-04-03 05:14:00,
2013-04-03 01:20:00,27.2,14.4,30.18,SW,225,4.0,4.0,58,0.00,,,0.00,Wunderground v.1.15,2013-04-03 05:20:00,
2013-04-03 01:26:00,27.1,14.3,30.18,SW,225,4.0,5.0,58,0.00,,,0.00,Wunderground v.1.15,2013-04-03 05:26:00,
2013-04-03 01:32:00,27.0,14.9,30.18,SW,225,2.0,3.0,60,0.00,,,0.00,Wunderground v.1.15,2013-04-03 05:32:00,
2013-04-03 01:38:00,26.7,15.0,30.18,SW,225,2.0,3.0,61,0.00,,,0.00,Wunderground v.1.15,2013-04-03 05:38:00,
2013-04-03 01:44:00,26.3,14.7,30.19,SW,236,3.0,3.0,61,0.00,,,0.00,Wunderground v.1.15,2013-04-03 05:44:00,
2013-04-03 01:50:00,26.1,15.2,30.19,SW,236,3.0,4.0,63,0.00,,,0.00,Wunderground v.1.15,2013-04-03 05:50:00,
2013-04-03 01:58:00,25.7,15.6,30.19,SW,236,3.0,4.0,65,0.00,,,0.00,Wunderground v.1.15,2013-04-03 05:58:00,
2013-04-03 02:04:00,25.7,14.8,30.19,SW,224,3.0,6.0,63,0.00,,,0.00,Wunderground v.1.15,2013-04-03 06:04:00,
2013-04-03 02:10:00,25.4,14.5,30.18,SW,236,3.0,3.0,63,0.00,,,0.00,Wunderground v.1.15,2013-04-03 06:10:00,
2013-04-03 02:16:00,25.6,14.4,30.18,SW,234,3.0,4.0,62,0.00,,,0.00,Wunderground v.1.15,2013-04-03 06:16:00,
2013-04-03 02:22:00,25.7,14.8,30.18,South,182,3.0,5.0,63,0.00,,,0.00,Wunderground v.1.15,2013-04-03 06:22:00,
2013-04-03 02:28:00,25.4,14.9,30.18,SSW,202,4.0,6.0,64,0.00,,,0.00,Wunderground v.1.15,2013-04-03 06:28:00,
2013-04-03 02:34:00,25.2,15.8,30.18,SSW,211,3.0,5.0,67,0.00,,,0.00,Wunderground v.1.15,2013-04-03 06:34:00,
2013-04-03 02:40:00,24.7,15.3,30.17,SW,233,3.0,3.0,67,0.00,,,0.00,Wunderground v.1.15,2013-04-03 06:40:00,
2013-04-03 02:46:00,24.8,14.7,30.18,SW,236,3.0,5.0,65,0.00,,,0.00,Wunderground v.1.15,2013-04-03 06:46:00,
2013-04-03 02:52:00,25.2,14.7,30.18,SW,215,4.0,4.0,64,0.00,,,0.00,Wunderground v.1.15,2013-04-03 06:52:00,
2013-04-03 02:58:00,25.4,15.6,30.18,SW,220,4.0,4.0,66,0.00,,,0.00,Wunderground v.1.15,2013-04-03 06:58:00,
2013-04-03 03:04:00,25.0,15.9,30.18,SW,227,3.0,3.0,68,0.00,,,0.00,Wunderground v.1.15,2013-04-03 07:04:00,
2013-04-03 03:10:00,24.6,16.2,30.18,SW,221,2.0,3.0,70,0.00,,,0.00,Wunderground v.1.15,2013-04-03 07:10:00,
2013-04-03 03:16:00,24.7,16.3,30.18,SW,233,3.0,4.0,70,0.00,,,0.00,Wunderground v.1.15,2013-04-03 07:16:00,
2013-04-03 03:22:00,24.7,16.6,30.18,SW,234,3.0,3.0,71,0.00,,,0.00,Wunderground v.1.15,2013-04-03 07:22:00,
2013-04-03 03:28:00,24.5,16.1,30.18,SW,229,2.0,5.0,70,0.00,,,0.00,Wunderground v.1.15,2013-04-03 07:28:00,
2013-04-03 03:34:00,24.4,16.3,30.18,SW,219,3.0,5.0,71,0.00,,,0.00,Wunderground v.1.15,2013-04-03 07:34:00,
2013-04-03 03:40:00,25.0,15.9,30.18,SW,219,3.0,4.0,68,0.00,,,0.00,Wunderground v.1.15,2013-04-03 07:40:00,
2013-04-03 03:46:00,25.2,16.8,30.18,SW,225,4.0,4.0,70,0.00,,,0.00,Wunderground v.1.15,2013-04-03 07:46:00,
2013-04-03 03:52:00,24.7,17.0,30.18,SW,236,3.0,5.0,72,0.00,,,0.00,Wunderground v.1.15,2013-04-03 07:52:00,
2013-04-03 03:58:00,24.7,16.6,30.18,SW,218,4.0,5.0,71,0.00,,,0.00,Wunderground v.1.15,2013-04-03 07:58:00,
2013-04-03 04:04:00,24.7,16.6,30.18,SW,217,2.0,4.0,71,0.00,,,0.00,Wunderground v.1.15,2013-04-03 08:04:00,
2013-04-03 04:10:00,24.4,16.7,30.18,SW,236,2.0,2.0,72,0.00,,,0.00,Wunderground v.1.15,2013-04-03 08:10:00,
2013-04-03 04:16:00,23.9,16.2,30.19,SW,236,1.0,2.0,72,0.00,,,0.00,Wunderground v.1.15,2013-04-03 08:16:00,
2013-04-03 04:22:00,23.8,16.1,30.19,WSW,237,1.0,2.0,72,0.00,,,0.00,Wunderground v.1.15,2013-04-03 08:22:00,
2013-04-03 04:28:00,23.5,16.1,30.19,WSW,237,0.0,2.0,73,0.00,,,0.00,Wunderground v.1.15,2013-04-03 08:28:00,
2013-04-03 04:34:00,23.1,16.0,30.19,SW,236,0.0,1.0,74,0.00,,,0.00,Wunderground v.1.15,2013-04-03 08:34:00,
2013-04-03 04:40:00,22.9,15.8,30.19,SW,236,0.0,0.0,74,0.00,,,0.00,Wunderground v.1.15,2013-04-03 08:40:00,
2013-04-03 04:48:00,23.0,15.9,30.19,SW,236,1.0,2.0,74,0.00,,,0.00,Wunderground v.1.15,2013-04-03 08:48:00,
2013-04-03 04:54:00,22.9,16.2,30.20,SW,236,0.0,0.0,75,0.00,,,0.00,Wunderground v.1.15,2013-04-03 08:54:00,
2013-04-03 05:00:00,22.8,16.1,30.20,SW,236,0.0,1.0,75,0.00,,,0.00,Wunderground v.1.15,2013-04-03 09:00:00,
2013-04-03 05:08:00,22.8,16.4,30.20,SW,236,0.0,1.0,76,0.00,,,0.00,Wunderground v.1.15,2013-04-03 09:08:00,
2013-04-03 05:14:00,22.5,16.4,30.20,SW,236,0.0,2.0,77,0.00,,,0.00,Wunderground v.1.15,2013-04-03 09:14:00,
2013-04-03 05:20:00,22.2,16.1,30.20,SW,236,0.0,0.0,77,0.00,,,0.00,Wunderground v.1.15,2013-04-03 09:20:00,
2013-04-03 05:26:00,22.1,16.3,30.20,SW,236,0.0,0.0,78,0.00,,,0.00,Wunderground v.1.15,2013-04-03 09:26:00,
2013-04-03 05:32:00,21.9,16.1,30.21,SW,236,0.0,2.0,78,0.00,,,0.00,Wunderground v.1.15,2013-04-03 09:32:00,
2013-04-03 05:38:00,22.2,16.4,30.21,SW,236,0.0,2.0,78,0.00,,,0.00,Wunderground v.1.15,2013-04-03 09:38:00,
2013-04-03 05:44:00,22.0,16.5,30.21,SW,236,0.0,0.0,79,0.00,,,0.00,Wunderground v.1.15,2013-04-03 09:44:00,
2013-04-03 05:50:00,22.0,16.5,30.22,SW,236,0.0,0.0,79,0.00,,,0.00,Wunderground v.1.15,2013-04-03 09:50:00,
2013-04-03 05:58:00,21.9,16.4,30.22,SW,236,0.0,0.0,79,0.00,,,0.00,Wunderground v.1.15,2013-04-03 09:58:00,
2013-04-03 06:04:00,21.6,16.1,30.22,SW,236,0.0,0.0,79,0.00,,,0.00,Wunderground v.1.15,2013-04-03 10:04:00,
2013-04-03 06:10:00,21.3,15.8,30.23,SW,236,0.0,0.0,79,0.00,,,0.00,Wunderground v.1.15,2013-04-03 10:10:00,
2013-04-03 06:16:00,21.2,16.0,30.23,SW,236,0.0,0.0,80,0.00,,,0.00,Wunderground v.1.15,2013-04-03 10:16:00,
2013-04-03 06:22:00,21.1,16.2,30.23,SW,236,0.0,0.0,81,0.00,,,0.00,Wunderground v.1.15,2013-04-03 10:22:00,
2013-04-03 06:28:00,20.8,15.6,30.23,SW,236,0.0,0.0,80,0.00,,,0.00,Wunderground v.1.15,2013-04-03 10:28:00,
2013-04-03 06:34:00,20.7,15.8,30.23,WSW,237,1.0,3.0,81,0.00,,,0.00,Wunderground v.1.15,2013-04-03 10:34:00,
2013-04-03 06:40:00,21.1,16.2,30.24,WSW,237,1.0,1.0,81,0.00,,,0.00,Wunderground v.1.15,2013-04-03 10:40:00,
2013-04-03 06:48:00,20.9,16.3,30.24,SW,236,1.0,2.0,82,0.00,,,0.00,Wunderground v.1.15,2013-04-03 10:48:00,
2013-04-03 06:54:00,20.8,16.2,30.24,WSW,246,1.0,2.0,82,0.00,,,0.00,Wunderground v.1.15,2013-04-03 10:54:00,
2013-04-03 07:00:00,20.9,16.3,30.24,WSW,246,1.0,1.0,82,0.00,,,0.00,Wunderground v.1.15,2013-04-03 11:00:00,
2013-04-03 07:08:00,21.1,16.5,30.25,WSW,244,1.0,2.0,82,0.00,,,0.00,Wunderground v.1.15,2013-04-03 11:08:00,
2013-04-03 07:14:00,21.5,16.9,30.25,WSW,244,1.0,4.0,82,0.00,,,0.00,Wunderground v.1.15,2013-04-03 11:14:00,
2013-04-03 07:20:00,22.1,17.4,30.25,WSW,254,2.0,2.0,82,0.00,,,0.00,Wunderground v.1.15,2013-04-03 11:20:00,
2013-04-03 07:28:00,22.4,17.7,30.25,WSW,254,1.0,4.0,82,0.00,,,0.00,Wunderground v.1.15,2013-04-03 11:28:00,
2013-04-03 07:34:00,22.6,17.9,30.26,WSW,254,1.0,1.0,82,0.00,,,0.00,Wunderground v.1.15,2013-04-03 11:34:00,
2013-04-03 07:40:00,22.9,18.2,30.26,WSW,254,0.0,0.0,82,0.00,,,0.00,Wunderground v.1.15,2013-04-03 11:40:00,
2013-04-03 07:46:00,23.6,18.9,30.26,West,273,0.0,2.0,82,0.00,,,0.00,Wunderground v.1.15,2013-04-03 11:46:00,
2013-04-03 07:52:00,24.8,19.8,30.26,West,275,1.0,2.0,81,0.00,,,0.00,Wunderground v.1.15,2013-04-03 11:52:00,
2013-04-03 07:58:00,25.9,20.6,30.26,West,275,1.0,2.0,80,0.00,,,0.00,Wunderground v.1.15,2013-04-03 11:58:00,
2013-04-03 08:04:00,27.0,21.4,30.26,West,275,0.0,0.0,79,0.00,,,0.00,Wunderground v.1.15,2013-04-03 12:04:00,
2013-04-03 08:10:00,28.2,21.6,30.26,West,275,0.0,0.0,76,0.00,,,0.00,Wunderground v.1.15,2013-04-03 12:10:00,
2013-04-03 08:18:00,29.6,21.0,30.27,NW,319,0.0,2.0,70,0.00,,,0.00,Wunderground v.1.15,2013-04-03 12:18:00,
2013-04-03 08:24:00,30.3,19.9,30.27,NNW,344,2.0,5.0,65,0.00,,,0.00,Wunderground v.1.15,2013-04-03 12:24:00,
2013-04-03 08:30:00,30.7,20.0,30.27,WNW,302,3.0,7.0,64,0.00,,,0.00,Wunderground v.1.15,2013-04-03 12:30:00,
2013-04-03 08:38:00,31.0,19.9,30.27,NW,319,4.0,8.0,63,0.00,,,0.00,Wunderground v.1.15,2013-04-03 12:38:00,
2013-04-03 08:44:00,31.2,19.7,30.27,NNW,327,3.0,4.0,62,0.00,,,0.00,Wunderground v.1.15,2013-04-03 12:44:00,
2013-04-03 08:50:00,31.5,20.0,30.26,NW,317,6.0,6.0,62,0.00,,,0.00,Wunderground v.1.15,2013-04-03 12:50:00,
2013-04-03 08:56:00,31.3,19.0,30.26,NW,321,9.0,14.0,60,0.00,,,0.00,Wunderground v.1.15,2013-04-03 12:56:00,
2013-04-03 09:02:00,31.5,19.2,30.26,NW,326,9.0,16.0,60,0.00,,,0.00,Wunderground v.1.15,2013-04-03 13:02:00,
2013-04-03 09:08:00,31.5,19.2,30.26,NNW,336,10.0,16.0,60,0.00,,,0.00,Wunderground v.1.15,2013-04-03 13:08:00,
2013-04-03 09:14:00,31.7,19.4,30.25,NNW,342,11.0,12.0,60,0.00,,,0.00,Wunderground v.1.15,2013-04-03 13:14:00,
2013-04-03 09:20:00,32.0,19.7,30.25,NNW,344,10.0,10.0,60,0.00,,,0.00,Wunderground v.1.15,2013-04-03 13:20:00,
2013-04-03 09:26:00,32.3,20.0,30.26,West,274,7.0,10.0,60,0.00,,,0.00,Wunderground v.1.15,2013-04-03 13:26:00,
2013-04-03 09:32:00,32.6,19.0,30.26,West,262,6.0,10.0,57,0.00,,,0.00,Wunderground v.1.15,2013-04-03 13:32:00,
2013-04-03 09:38:00,32.6,17.3,30.26,WNW,299,8.0,10.0,53,0.00,,,0.00,Wunderground v.1.15,2013-04-03 13:38:00,
2013-04-03 09:44:00,32.4,16.3,30.26,WNW,292,13.0,17.0,51,0.00,,,0.00,Wunderground v.1.15,2013-04-03 13:44:00,
2013-04-03 09:50:00,32.4,15.8,30.27,WNW,290,14.0,14.0,50,0.00,,,0.00,Wunderground v.1.15,2013-04-03 13:50:00,
2013-04-03 09:58:00,33.4,18.5,30.27,WSW,258,8.0,14.0,54,0.00,,,0.00,Wunderground v.1.15,2013-04-03 13:58:00,
2013-04-03 10:04:00,33.3,16.2,30.27,NW,304,11.0,19.0,49,0.00,,,0.00,Wunderground v.1.15,2013-04-03 14:04:00,
2013-04-03 10:10:00,33.8,18.5,30.27,WNW,303,13.0,13.0,53,0.00,,,0.00,Wunderground v.1.15,2013-04-03 14:10:00,
2013-04-03 10:16:00,34.2,17.0,30.27,West,266,9.0,16.0,49,0.00,,,0.00,Wunderground v.1.15,2013-04-03 14:16:00,
2013-04-03 10:22:00,34.3,17.1,30.28,West,278,10.0,11.0,49,0.00,,,0.00,Wunderground v.1.15,2013-04-03 14:22:00,
2013-04-03 10:28:00,34.7,17.5,30.28,West,259,9.0,14.0,49,0.00,,,0.00,Wunderground v.1.15,2013-04-03 14:28:00,
2013-04-03 10:34:00,35.0,16.8,30.29,WSW,254,11.0,15.0,47,0.00,,,0.00,Wunderground v.1.15,2013-04-03 14:34:00,
2013-04-03 10:40:00,34.9,16.2,30.29,WSW,246,12.0,12.0,46,0.00,,,0.00,Wunderground v.1.15,2013-04-03 14:40:00,
2013-04-03 10:48:00,34.8,16.1,30.29,NW,310,11.0,12.0,46,0.00,,,0.00,Wunderground v.1.15,2013-04-03 14:48:00,
2013-04-03 10:54:00,35.2,17.0,30.29,West,267,9.0,13.0,47,0.00,,,0.00,Wunderground v.1.15,2013-04-03 14:54:00,
2013-04-03 11:00:00,35.5,16.7,30.30,West,278,12.0,15.0,46,0.00,,,0.00,Wunderground v.1.15,2013-04-03 15:00:00,
2013-04-03 11:08:00,35.5,16.2,30.30,WNW,295,12.0,15.0,45,0.00,,,0.00,Wunderground v.1.15,2013-04-03 15:08:00,
2013-04-03 11:14:00,35.6,14.7,30.30,West,280,12.0,14.0,42,0.00,,,0.00,Wunderground v.1.15,2013-04-03 15:14:00,
2013-04-03 11:20:00,35.2,16.0,30.30,West,281,14.0,14.0,45,0.00,,,0.00,Wunderground v.1.15,2013-04-03 15:20:00,
2013-04-03 11:26:00,35.2,13.8,30.30,WNW,292,14.0,17.0,41,0.00,,,0.00,Wunderground v.1.15,2013-04-03 15:26:00,
2013-04-03 11:32:00,35.5,14.6,30.30,West,271,11.0,12.0,42,0.00,,,0.00,Wunderground v.1.15,2013-04-03 15:32:00,
2013-04-03 11:38:00,35.3,11.6,30.30,NW,319,9.0,12.0,37,0.00,,,0.00,Wunderground v.1.15,2013-04-03 15:38:00,
2013-04-03 11:44:00,35.7,14.3,30.30,WSW,253,10.0,14.0,41,0.00,,,0.00,Wunderground v.1.15,2013-04-03 15:44:00,
2013-04-03 11:50:00,36.1,14.1,30.29,SSW,210,10.0,11.0,40,0.00,,,0.00,Wunderground v.1.15,2013-04-03 15:50:00,
2013-04-03 11:56:00,36.4,14.3,30.29,NW,309,10.0,12.0,40,0.00,,,0.00,Wunderground v.1.15,2013-04-03 15:56:00,
2013-04-03 12:02:00,37.0,13.7,30.29,West,272,11.0,13.0,38,0.00,,,0.00,Wunderground v.1.15,2013-04-03 16:02:00,
2013-04-03 12:08:00,37.3,13.4,30.29,WSW,244,12.0,15.0,37,0.00,,,0.00,Wunderground v.1.15,2013-04-03 16:08:00,
2013-04-03 12:14:00,37.3,15.2,30.30,WSW,250,13.0,15.0,40,0.00,,,0.00,Wunderground v.1.15,2013-04-03 16:14:00,
2013-04-03 12:20:00,37.2,15.1,30.30,West,279,15.0,16.0,40,0.00,,,0.00,Wunderground v.1.15,2013-04-03 16:20:00,
2013-04-03 12:28:00,37.3,12.7,30.30,SW,225,13.0,17.0,36,0.00,,,0.00,Wunderground v.1.15,2013-04-03 16:28:00,
2013-04-03 12:34:00,37.2,14.5,30.30,WNW,292,13.0,16.0,39,0.00,,,0.00,Wunderground v.1.15,2013-04-03 16:34:00,
2013-04-03 12:40:00,37.5,15.9,30.30,WSW,249,13.0,13.0,41,0.00,,,0.00,Wunderground v.1.15,2013-04-03 16:40:00,
2013-04-03 12:46:00,37.8,15.0,30.29,West,275,13.0,15.0,39,0.00,,,0.00,Wunderground v.1.15,2013-04-03 16:46:00,
2013-04-03 12:52:00,37.5,13.6,30.29,West,268,12.0,13.0,37,0.00,,,0.00,Wunderground v.1.15,2013-04-03 16:52:00,
2013-04-03 13:00:00,37.6,13.0,30.29,SW,231,13.0,15.0,36,0.00,,,0.00,Wunderground v.1.15,2013-04-03 17:00:00,
2013-04-03 13:08:00,38.0,15.2,30.29,West,279,13.0,16.0,39,0.00,,,0.00,Wunderground v.1.15,2013-04-03 17:08:00,
2013-04-03 13:14:00,38.2,16.5,30.28,WNW,303,12.0,19.0,41,0.00,,,0.00,Wunderground v.1.15,2013-04-03 17:14:00,
2013-04-03 13:20:00,37.7,16.1,30.29,NW,306,14.0,14.0,41,0.00,,,0.00,Wunderground v.1.15,2013-04-03 17:20:00,
2013-04-03 13:26:00,38.6,18.0,30.29,West,277,11.0,17.0,43,0.00,,,0.00,Wunderground v.1.15,2013-04-03 17:26:00,
2013-04-03 13:32:00,38.2,14.2,30.29,WNW,286,11.0,14.0,37,0.00,,,0.00,Wunderground v.1.15,2013-04-03 17:32:00,
2013-04-03 13:38:00,37.9,14.5,30.29,WNW,284,12.0,15.0,38,0.00,,,0.00,Wunderground v.1.15,2013-04-03 17:38:00,
2013-04-03 13:44:00,37.3,12.7,30.30,WSW,242,13.0,14.0,36,0.00,,,0.00,Wunderground v.1.15,2013-04-03 17:44:00,
2013-04-03 13:50:00,36.8,13.5,30.29,WNW,284,12.0,12.0,38,0.00,,,0.00,Wunderground v.1.15,2013-04-03 17:50:00,
2013-04-03 13:56:00,37.5,13.6,30.30,West,275,8.0,12.0,37,0.00,,,0.00,Wunderground v.1.15,2013-04-03 17:56:00,
2013-04-03 14:02:00,37.2,13.3,30.30,West,271,8.0,16.0,37,0.00,,,0.00,Wunderground v.1.15,2013-04-03 18:02:00,
2013-04-03 14:08:00,36.9,13.6,30.30,WNW,299,11.0,16.0,38,0.00,,,0.00,Wunderground v.1.15,2013-04-03 18:08:00,
2013-04-03 14:14:00,36.7,14.0,30.30,West,269,11.0,12.0,39,0.00,,,0.00,Wunderground v.1.15,2013-04-03 18:14:00,
2013-04-03 14:20:00,37.4,14.1,30.29,WSW,246,9.0,9.0,38,0.00,,,0.00,Wunderground v.1.15,2013-04-03 18:20:00,
2013-04-03 14:28:00,37.7,13.7,30.30,WNW,303,9.0,18.0,37,0.00,,,0.00,Wunderground v.1.15,2013-04-03 18:28:00,
2013-04-03 14:34:00,37.1,13.2,30.30,NW,324,9.0,16.0,37,0.00,,,0.00,Wunderground v.1.15,2013-04-03 18:34:00,
2013-04-03 14:40:00,37.4,15.8,30.30,WNW,283,12.0,12.0,41,0.00,,,0.00,Wunderground v.1.15,2013-04-03 18:40:00,
2013-04-03 14:46:00,37.9,15.7,30.30,WNW,294,13.0,14.0,40,0.00,,,0.00,Wunderground v.1.15,2013-04-03 18:46:00,
2013-04-03 14:52:00,37.5,15.3,30.30,North,355,14.0,21.0,40,0.00,,,0.00,Wunderground v.1.15,2013-04-03 18:52:00,
2013-04-03 14:58:00,38.4,17.8,30.30,West,263,15.0,21.0,43,0.00,,,0.00,Wunderground v.1.15,2013-04-03 18:58:00,
2013-04-03 15:04:00,38.8,15.9,30.30,West,267,12.0,16.0,39,0.00,,,0.00,Wunderground v.1.15,2013-04-03 19:04:00,
2013-04-03 15:10:00,38.6,16.3,30.30,WNW,291,12.0,16.0,40,0.00,,,0.00,Wunderground v.1.15,2013-04-03 19:10:00,
2013-04-03 15:18:00,38.3,16.1,30.30,West,275,13.0,20.0,40,0.00,,,0.00,Wunderground v.1.15,2013-04-03 19:18:00,
2013-04-03 15:24:00,37.8,16.2,30.30,NW,311,15.0,15.0,41,0.00,,,0.00,Wunderground v.1.15,2013-04-03 19:24:00,
2013-04-03 15:30:00,37.1,16.6,30.30,NW,313,15.0,15.0,43,0.00,,,0.00,Wunderground v.1.15,2013-04-03 19:30:00,
2013-04-03 15:36:00,37.2,17.3,30.30,NW,323,14.0,18.0,44,0.00,,,0.00,Wunderground v.1.15,2013-04-03 19:36:00,
2013-04-03 15:42:00,37.4,16.9,30.31,NNW,327,13.0,14.0,43,0.00,,,0.00,Wunderground v.1.15,2013-04-03 19:42:00,
2013-04-03 15:48:00,37.1,20.2,30.32,NW,322,13.0,17.0,50,0.00,,,0.00,Wunderground v.1.15,2013-04-03 19:48:00,
2013-04-03 15:54:00,37.2,20.7,30.32,NW,306,14.0,14.0,51,0.00,,,0.00,Wunderground v.1.15,2013-04-03 19:54:00,
2013-04-03 16:02:00,37.4,20.0,30.31,North,349,10.0,12.0,49,0.00,,,0.00,Wunderground v.1.15,2013-04-03 20:02:00,
2013-04-03 16:08:00,37.1,20.2,30.31,WNW,300,11.0,15.0,50,0.00,,,0.00,Wunderground v.1.15,2013-04-03 20:08:00,
2013-04-03 16:18:00,37.2,20.2,30.31,North,355,11.0,16.0,50,0.00,,,0.00,Wunderground v.1.15,2013-04-03 20:18:00,
2013-04-03 16:24:00,37.3,20.8,30.32,West,272,13.0,17.0,51,0.00,,,0.00,Wunderground v.1.15,2013-04-03 20:24:00,
2013-04-03 16:30:00,37.4,21.4,30.32,NW,323,14.0,14.0,52,0.00,,,0.00,Wunderground v.1.15,2013-04-03 20:30:00,
2013-04-03 16:36:00,37.8,21.3,30.32,West,269,12.0,16.0,51,0.00,,,0.00,Wunderground v.1.15,2013-04-03 20:36:00,
2013-04-03 16:42:00,37.3,19.4,30.32,West,272,14.0,15.0,48,0.00,,,0.00,Wunderground v.1.15,2013-04-03 20:42:00,
2013-04-03 16:48:00,36.2,19.8,30.33,NNW,338,15.0,16.0,51,0.00,,,0.00,Wunderground v.1.15,2013-04-03 20:48:00,
2013-04-03 16:54:00,35.9,18.6,30.33,WNW,296,14.0,18.0,49,0.00,,,0.00,Wunderground v.1.15,2013-04-03 20:54:00,
2013-04-03 17:00:00,36.3,19.9,30.33,WNW,302,11.0,11.0,51,0.00,,,0.00,Wunderground v.1.15,2013-04-03 21:00:00,
2013-04-03 17:08:00,34.1,24.3,30.35,NW,326,12.0,14.0,67,0.00,,,0.00,Wunderground v.1.15,2013-04-03 21:08:00,
2013-04-03 17:14:00,33.3,26.5,30.36,WNW,302,11.0,12.0,76,0.00,,,0.00,Wunderground v.1.15,2013-04-03 21:14:00,
2013-04-03 17:20:00,32.4,25.0,30.37,WNW,298,11.0,11.0,74,0.00,,,0.00,Wunderground v.1.15,2013-04-03 21:20:00,
2013-04-03 17:26:00,32.7,25.6,30.36,NNW,327,8.0,11.0,75,0.00,,,0.00,Wunderground v.1.15,2013-04-03 21:26:00,
2013-04-03 17:32:00,33.5,25.1,30.36,WSW,251,6.0,10.0,71,0.00,,,0.00,Wunderground v.1.15,2013-04-03 21:32:00,
2013-04-03 17:38:00,33.4,24.3,30.36,NW,313,7.0,14.0,69,0.00,,,0.00,Wunderground v.1.15,2013-04-03 21:38:00,
2013-04-03 17:44:00,34.6,23.7,30.36,WNW,290,8.0,9.0,64,0.00,,,0.00,Wunderground v.1.15,2013-04-03 21:44:00,
2013-04-03 17:50:00,34.3,23.0,30.36,West,279,8.0,9.0,63,0.00,,,0.00,Wunderground v.1.15,2013-04-03 21:50:00,
2013-04-03 17:58:00,34.4,23.1,30.37,NW,325,10.0,17.0,63,0.00,,,0.00,Wunderground v.1.15,2013-04-03 21:58:00,
2013-04-03 18:04:00,34.8,20.7,30.37,NW,319,10.0,12.0,56,0.00,,,0.00,Wunderground v.1.15,2013-04-03 22:04:00,
2013-04-03 18:10:00,34.9,19.9,30.37,West,262,9.0,9.0,54,0.00,,,0.00,Wunderground v.1.15,2013-04-03 22:10:00,
2013-04-03 18:16:00,35.0,19.6,30.36,West,275,8.0,9.0,53,0.00,,,0.00,Wunderground v.1.15,2013-04-03 22:16:00,
2013-04-03 18:22:00,35.4,18.1,30.37,West,267,5.0,8.0,49,0.00,,,0.00,Wunderground v.1.15,2013-04-03 22:22:00,
2013-04-03 18:28:00,35.2,16.5,30.37,WNW,282,8.0,18.0,46,0.00,,,0.00,Wunderground v.1.15,2013-04-03 22:28:00,
2013-04-03 18:34:00,35.2,14.4,30.36,WNW,290,9.0,9.0,42,0.00,,,0.00,Wunderground v.1.15,2013-04-03 22:34:00,
2013-04-03 18:40:00,35.1,13.2,30.37,NNW,333,8.0,14.0,40,0.00,,,0.00,Wunderground v.1.15,2013-04-03 22:40:00,
2013-04-03 18:46:00,35.0,13.1,30.38,WNW,292,9.0,14.0,40,0.00,,,0.00,Wunderground v.1.15,2013-04-03 22:46:00,
2013-04-03 18:52:00,34.9,12.4,30.38,West,264,9.0,14.0,39,0.00,,,0.00,Wunderground v.1.15,2013-04-03 22:52:00,
2013-04-03 18:58:00,34.7,12.8,30.38,West,273,8.0,14.0,40,0.00,,,0.00,Wunderground v.1.15,2013-04-03 22:58:00,
2013-04-03 19:04:00,34.7,11.6,30.38,West,277,9.0,15.0,38,0.00,,,0.00,Wunderground v.1.15,2013-04-03 23:04:00,
2013-04-03 19:10:00,34.3,10.1,30.39,WNW,293,11.0,13.0,36,0.00,,,0.00,Wunderground v.1.15,2013-04-03 23:10:00,
2013-04-03 19:18:00,33.8,10.8,30.39,NW,319,10.0,13.0,38,0.00,,,0.00,Wunderground v.1.15,2013-04-03 23:18:00,
2013-04-03 19:24:00,33.5,10.6,30.39,NW,310,7.0,9.0,38,0.00,,,0.00,Wunderground v.1.15,2013-04-03 23:24:00,
2013-04-03 19:30:00,33.3,10.4,30.39,West,273,6.0,9.0,38,0.00,,,0.00,Wunderground v.1.15,2013-04-03 23:30:00,
2013-04-03 19:36:00,33.2,10.3,30.39,NW,321,7.0,9.0,38,0.00,,,0.00,Wunderground v.1.15,2013-04-03 23:36:00,
2013-04-03 19:42:00,32.9,10.6,30.39,NW,314,4.0,5.0,39,0.00,,,0.00,Wunderground v.1.15,2013-04-03 23:42:00,
2013-04-03 19:48:00,32.8,10.5,30.39,NW,304,4.0,10.0,39,0.00,,,0.00,Wunderground v.1.15,2013-04-03 23:48:00,
2013-04-03 19:54:00,32.6,10.3,30.39,West,269,6.0,11.0,39,0.00,,,0.00,Wunderground v.1.15,2013-04-03 23:54:00,
2013-04-03 20:00:00,32.5,10.3,30.39,NNW,332,7.0,7.0,39,0.00,,,0.00,Wunderground v.1.15,2013-04-04 00:00:00,
2013-04-03 20:08:00,32.3,11.2,30.40,NW,325,7.0,8.0,41,0.00,,,0.00,Wunderground v.1.15,2013-04-04 00:08:00,
2013-04-03 20:14:00,32.3,10.1,30.40,NNE,13,5.0,9.0,39,0.00,,,0.00,Wunderground v.1.15,2013-04-04 00:14:00,
2013-04-03 20:20:00,32.0,10.9,30.40,NNE,30,5.0,5.0,41,0.00,,,0.00,Wunderground v.1.15,2013-04-04 00:20:00,
2013-04-03 20:28:00,31.2,10.2,30.40,WNW,291,5.0,8.0,41,0.00,,,0.00,Wunderground v.1.15,2013-04-04 00:28:00,
2013-04-03 20:34:00,31.2,11.3,30.40,NNE,25,5.0,12.0,43,0.00,,,0.00,Wunderground v.1.15,2013-04-04 00:34:00,
2013-04-03 20:40:00,31.2,10.7,30.40,NNE,24,8.0,14.0,42,0.00,,,0.00,Wunderground v.1.15,2013-04-04 00:40:00,
2013-04-03 20:46:00,31.2,11.3,30.40,NNW,348,8.0,14.0,43,0.00,,,0.00,Wunderground v.1.15,2013-04-04 00:46:00,
2013-04-03 20:52:00,31.1,10.6,30.41,NW,309,7.0,8.0,42,0.00,,,0.00,Wunderground v.1.15,2013-04-04 00:52:00,
2013-04-03 20:58:00,31.0,11.1,30.41,NNW,331,5.0,8.0,43,0.00,,,0.00,Wunderground v.1.15,2013-04-04 00:58:00,
2013-04-03 21:04:00,31.0,11.1,30.41,NNW,332,5.0,10.0,43,0.00,,,0.00,Wunderground v.1.15,2013-04-04 01:04:00,
2013-04-03 21:10:00,30.9,11.5,30.41,NNW,340,7.0,12.0,44,0.00,,,0.00,Wunderground v.1.15,2013-04-04 01:10:00,
2013-04-03 21:16:00,30.7,11.8,30.41,NNE,29,7.0,12.0,45,0.00,,,0.00,Wunderground v.1.15,2013-04-04 01:16:00,
2013-04-03 21:22:00,30.4,11.6,30.42,NNW,341,6.0,7.0,45,0.00,,,0.00,Wunderground v.1.15,2013-04-04 01:22:00,
2013-04-03 21:28:00,29.9,12.6,30.42,NNE,25,5.0,7.0,48,0.00,,,0.00,Wunderground v.1.15,2013-04-04 01:28:00,
2013-04-03 21:34:00,29.3,12.5,30.42,NNE,24,6.0,10.0,49,0.00,,,0.00,Wunderground v.1.15,2013-04-04 01:34:00,
2013-04-03 21:40:00,29.9,12.1,30.42,NNW,333,9.0,12.0,47,0.00,,,0.00,Wunderground v.1.15,2013-04-04 01:40:00,
2013-04-03 21:46:00,30.3,12.5,30.42,North,350,8.0,12.0,47,0.00,,,0.00,Wunderground v.1.15,2013-04-04 01:46:00,
2013-04-03 21:52:00,30.2,12.8,30.42,NNW,347,8.0,9.0,48,0.00,,,0.00,Wunderground v.1.15,2013-04-04 01:52:00,
2013-04-03 21:58:00,29.7,12.8,30.41,NNW,338,8.0,9.0,49,0.00,,,0.00,Wunderground v.1.15,2013-04-04 01:58:00,
2013-04-03 22:04:00,29.2,13.3,30.41,North,9,6.0,8.0,51,0.00,,,0.00,Wunderground v.1.15,2013-04-04 02:04:00,
2013-04-03 22:10:00,28.7,13.3,30.41,North,360,5.0,6.0,52,0.00,,,0.00,Wunderground v.1.15,2013-04-04 02:10:00,
2013-04-03 22:16:00,28.4,13.4,30.41,North,11,7.0,8.0,53,0.00,,,0.00,Wunderground v.1.15,2013-04-04 02:16:00,
2013-04-03 22:22:00,28.4,13.4,30.40,NE,48,8.0,8.0,53,0.00,,,0.00,Wunderground v.1.15,2013-04-04 02:22:00,
2013-04-03 22:28:00,28.6,13.6,30.39,NNE,13,8.0,11.0,53,0.00,,,0.00,Wunderground v.1.15,2013-04-04 02:28:00,
2013-04-03 22:34:00,28.3,13.8,30.39,North,9,7.0,8.0,54,0.00,,,0.00,Wunderground v.1.15,2013-04-04 02:34:00,
2013-04-03 22:40:00,28.4,13.4,30.39,North,5,6.0,6.0,53,0.00,,,0.00,Wunderground v.1.15,2013-04-04 02:40:00,
2013-04-03 22:46:00,28.5,13.1,30.39,NNE,19,8.0,11.0,52,0.00,,,0.00,Wunderground v.1.15,2013-04-04 02:46:00,
2013-04-03 22:52:00,28.8,13.4,30.39,North,5,8.0,12.0,52,0.00,,,0.00,Wunderground v.1.15,2013-04-04 02:52:00,
2013-04-03 22:58:00,28.8,13.4,30.39,NNE,13,7.0,12.0,52,0.00,,,0.00,Wunderground v.1.15,2013-04-04 02:58:00,
2013-04-03 23:04:00,28.5,13.5,30.39,North,5,6.0,7.0,53,0.00,,,0.00,Wunderground v.1.15,2013-04-04 03:04:00,
2013-04-03 23:10:00,28.3,13.3,30.39,NE,42,5.0,5.0,53,0.00,,,0.00,Wunderground v.1.15,2013-04-04 03:10:00,
2013-04-03 23:16:00,28.4,13.0,30.39,NNE,23,3.0,5.0,52,0.00,,,0.00,Wunderground v.1.15,2013-04-04 03:16:00,
2013-04-03 23:22:00,28.3,12.5,30.39,NE,52,3.0,5.0,51,0.00,,,0.00,Wunderground v.1.15,2013-04-04 03:22:00,
2013-04-03 23:28:00,27.9,12.5,30.39,NE,50,3.0,5.0,52,0.00,,,0.00,Wunderground v.1.15,2013-04-04 03:28:00,
2013-04-03 23:34:00,27.8,12.9,30.40,NE,50,2.0,2.0,53,0.00,,,0.00,Wunderground v.1.15,2013-04-04 03:34:00,
2013-04-03 23:40:00,27.7,12.3,30.40,ENE,67,0.0,0.0,52,0.00,,,0.00,Wunderground v.1.15,2013-04-04 03:40:00,
2013-04-03 23:48:00,26.7,12.7,30.40,ENE,67,0.0,1.0,55,0.00,,,0.00,Wunderground v.1.15,2013-04-04 03:48:00,
2013-04-03 23:54:00,25.9,13.1,30.40,ENE,67,0.0,0.0,58,0.00,,,0.00,Wunderground v.1.15,2013-04-04 03:54:00,